AirNav   Everest Fuels
 
 1173 users online  

74R Horizon Airport
San Antonio, Texas, USA

GOING TO SAN ANTONIO?


FAA INFORMATION EFFECTIVE 26 MARCH 2020

Location

FAA Identifier: 74R
Lat/Long: 29-17-04.5000N 098-29-53.9000W
29-17.075000N 098-29.898333W
29.2845833,-98.4983056
(estimated)
Elevation: 551 ft. / 168 m (estimated)
Variation: 07E (1985)
From city: 9 miles S of SAN ANTONIO, TX
Time zone: UTC -5 (UTC -6 during Standard Time)
Zip code: 78221

Airport Operations

Airport use: Open to the public
Activation date: 04/1945
Control tower: no
ARTCC: HOUSTON CENTER
FSS: SAN ANGELO FLIGHT SERVICE STATION
NOTAMs facility: SJT (NOTAM-D service available)
Attendance: CONTINUOUS
Wind indicator: yes
Segmented circle: no

Airport Communications

CTAF: 122.9
WX ASOS at SSF (3 nm NE): PHONE 210-927-9391
WX ASOS at SAT (15 nm N): PHONE 210-805-5583
WX AWOS-3 at CVB (19 nm W): 119.25 (830-931-0232)
WX AWOS-3 at PEZ (20 nm S): 118.575 (830-569-5749)

Nearby radio navigation aids

VOR radial/distance  VOR name  Freq  Var
SSFr290/(3.3)STINSON VOR108.4009E
RNDr213/18.0RANDOLPH VORTAC112.3005E
SATr177/21.7SAN ANTONIO VORTAC116.8008E

 
NDB name  Hdg/Dist  Freq  Var  ID
DEVINE062/24.735907EHHH .... .... ....
HONDO091/35.632908EHMA .... -- .-

Airport Services

Parking: hangars and tiedowns
Bottled oxygen: NONE
Bulk oxygen: NONE

Runway Information

Runway 11/29

Dimensions: 2360 x 80 ft. / 719 x 24 m
Surface: turf, in good condition
RUNWAY 11  RUNWAY 29
Latitude: 29-17.161922N29-16.982842N
Longitude: 098-30.013272W098-29.618742W
Elevation: 551.0 ft.540.0 ft.
Traffic pattern: leftleft
Runway heading: 110 magnetic, 117 true290 magnetic, 297 true
Obstructions: 5 ft. fence, 119 ft. from runway, 137 ft. right of centerline, 23:1 slope to clear19 ft. trees

Runway 16/34

Dimensions: 2250 x 100 ft. / 686 x 30 m
Surface: turf, in good condition
RUNWAY 16  RUNWAY 34
Latitude: 29-17.255087N29-16.899377N
Longitude: 098-30.046423W098-29.924860W
Elevation: 551.0 ft.529.0 ft.
Traffic pattern: leftleft
Runway heading: 156 magnetic, 163 true336 magnetic, 343 true
Obstructions: 36 ft. trees, 110 ft. from runway, 70 ft. left of centerline, 3:1 slope to clear46 ft. trees, 522 ft. from runway, 11:1 slope to clear

Airport Ownership and Management from official FAA records

Ownership: Privately-owned
Owner: TOUDOUZE INVESTMENTS INC
PO BOX 380332
SAN ANTONIO, TX 78268
Phone (210) 859-9946
MANAGING PARTNER WILLIAM S. TOUDOUZE.
Manager: 13680 PLEASANTON RD.
SAN ANTONIO, TX 78221
Phone (210) 859-9946

Airport Operational Statistics

Aircraft based on the field: 3
Single engine airplanes: 3
    
Aircraft operations: 140/year *
71% local general aviation
29% transient general aviation
* for 12-month period ending 02 February 2017

Additional Remarks

RY THLDS MARKED BY 3 FT WHITE CONES.
NO LINE OF SIGHT BETWEEN RYS 34 & 29
WILD HOGS ON OR INVOF ARPT.
FOR CD CTC SAN ANTONIO APCH AT 210-805-5516.
NO COMMERCIAL FLIGHT SERVICE.

Instrument Procedures

There are no published instrument procedures at 74R.

Some nearby airports with instrument procedures:

KSSF - Stinson Municipal Airport (3 nm NE)
KSKF - Kelly Field Airport (7 nm NW)
KSAT - San Antonio International Airport (15 nm N)
KRND - Randolph Air Force Base (19 nm NE)
KCVB - Castroville Municipal Airport (19 nm W)
KPEZ - Pleasanton Municipal Airport (20 nm S)
 
Loc | Ops | Rwys | IFR | FBO | Links
Com | Nav | Svcs | Stats | Notes
Area around 74R (Horizon Airport)
 
Road maps at: MapQuest Bing Google
 
Aerial photo
WARNING: Photo may not be current or correct
Aerial photo of 74R (Horizon Airport)
Photo by Bill Lux at Bull's Nest, Inc.
Photo taken 24-Oct-2013
looking east.

Do you have a better or more recent aerial photo of Horizon Airport that you would like to share? If so, please send us your photo.

 
Sectional chart

 
Airport distance calculator
Flying to Horizon Airport? Find the distance to fly.

From to 74R

Sunrise and sunset
Times for 08-Apr-2020
 Local
(UTC-5)
 Zulu
(UTC)
Morning civil twilight06:5111:51
Sunrise07:1512:15
Sunset19:5600:56
Evening civil twilight20:2001:20

Current date and time
Zulu (UTC)  08-Apr-2020 15:45:23
Local (UTC-5)  08-Apr-2020 10:45:23
 
METAR
KSSF 
3nm NE 
081506Z VRB04KT 6SM BR SCT008 24/22 A2994 RMK AO2 T02390222
KSKF 
6nm NW 
081505Z 22007KT 6SM BR SCT007 BKN100 24/22 A2994 RMK SLP132 $
KSAT 
15nm N 
081508Z 27006KT 8SM FEW008 SCT029 BKN230 25/22 A2996 RMK AO2 T02500222
KRND 
18nm NE 
081511Z 27007KT 6SM BR SCT010 BKN250 25/22 A2995 RMK AO2A SLP135 $
KCVB 
19nm W 
081530Z AUTO 27003KT 5SM HZ CLR 27/24 A2998 RMK AO2 T02660239
KPEZ 
20nm S 
081535Z AUTO 21004KT 10SM CLR 25/21 A2996 RMK AO2 T02450214
TAF
KSSF 
3nm NE 
081120Z 0812/0912 21003KT 2SM BR BKN006 TEMPO 0812/0814 1/2SM FG FM081500 21006KT P6SM BKN015 FM081700 20007KT P6SM SCT040 BKN250
KSKF 
6nm NW 
081000Z 0810/0916 17003KT 2800 BR SCT005 QNH2985INS BECMG 0810/0811 17004KT 1600 BR OVC004 QNH2983INS TEMPO 0810/0814 0400 FG VV002 BECMG 0813/0814 17006KT 6000 BR FEW003 OVC009 QNH2983INS BECMG 0814/0815 17007KT 9999 NSW OVC010 QNH2985INS BECMG 0816/0817 20009KT 9999 SCT140 QNH2976INS BECMG 0822/0823 18010KT 9999 VCTS SCT020CB BKN140 QNH2974INS BECMG 0901/0902 VRB05KT 9999 NSW BKN140 QNH2980INS TX33/0820Z TN20/0811Z
KSAT 
15nm N 
081326Z 0813/0918 20005KT 1SM BR BKN005 OVC012 TEMPO 0813/0815 3SM BR FM081500 20007KT P6SM BKN012 FM081700 20007KT P6SM SCT040 BKN250 FM090100 16005KT P6SM BKN250 FM090600 VRB03KT P6SM BKN200
KRND 
18nm NE 
081156Z 0812/0918 22005KT 2400 BR OVC003 QNH2990INS TEMPO 0812/0814 0800 FG VV001 BECMG 0814/0815 21009KT 9000 BR SCT007 BKN012 BKN140 OVC230 QNH2991INS BECMG 0816/0817 22012KT 9999 NSW SCT020 SCT120 BKN220 QNH2977INS BECMG 0901/0902 VRB05KT 9999 SCT025 SCT120 OVC220 QNH2978INS BECMG 0909/0910 VRB06KT 4800 BR BKN002 OVC200 QNH2981INS BECMG 0915/0916 23012KT 9999 NSW SCT020 SCT060 BKN140 BKN250 QNH2979INS TX31/0821Z TN21/0812Z
NOTAMs
Click for the latest NOTAMs
NOTAMs are issued by the DoD/FAA and will open in a separate window not controlled by AirNav.

 

 
 

Would you like to see your business listed on this page?

 If your business provides an interesting product or service to pilots, flight crews, aircraft, or users of the Horizon Airport, you should consider listing it here.  To start the listing process, click on the button below
 
Add a business
 

Other Pages about Horizon Airport

Update a link
 
Copyright © AirNav, LLC. All rights reserved. Privacy Policy  Contact